Terminal Aerodrome Forecast
Issued by NWS Greer, SC

Home | Current Version | Previous Version | Text Only | Print | Product List | Glossary On
Versions: 1 2 3 4 5 6 7 8 9 10 11 12 13 14 15 16
000
FTUS42 KGSP 241459 AAC
TAFGSP
TAF AMD
KGSP 241459Z 2415/2512 VRB03KT P6SM FEW030 BKN250
     FM242000 23007KT P6SM VCTS SCT060CB BKN250
     FM250000 24003KT P6SM FEW060 BKN250
     FM250500 26003KT P6SM SCT250
     FM251000 32003KT P6SM SCT250=

USA.gov is the U.S. government's official web portal to all federal, state and local government web resources and services.